createdAt,value
2018-02-24T00:01:45.688Z,51.90
2018-02-24T00:04:14.747Z,51.90
2018-02-24T00:06:43.032Z,51.80
2018-02-24T00:09:11.378Z,51.80
2018-02-24T00:11:39.686Z,51.80
2018-02-24T00:14:07.959Z,51.70
2018-02-24T00:16:36.198Z,51.70
2018-02-24T00:19:04.472Z,51.70
2018-02-24T00:21:32.755Z,51.70
2018-02-24T00:24:01.034Z,51.80
2018-02-24T00:26:29.350Z,51.70
2018-02-24T00:28:57.590Z,51.70
2018-02-24T00:31:25.848Z,51.80
2018-02-24T00:33:54.140Z,52.30
2018-02-24T00:36:22.395Z,51.70
2018-02-24T00:38:50.655Z,51.80
2018-02-24T00:41:18.926Z,51.60
2018-02-24T00:43:47.218Z,51.70
2018-02-24T00:46:15.489Z,51.80
2018-02-24T00:48:43.771Z,51.90
2018-02-24T00:51:12.044Z,52.10
2018-02-24T00:53:40.299Z,52.10
2018-02-24T00:56:08.581Z,52.30
2018-02-24T00:58:36.855Z,52.40
2018-02-24T01:01:05.142Z,52.60
2018-02-24T01:03:33.408Z,52.50
2018-02-24T01:06:01.807Z,52.60
2018-02-24T01:08:30.058Z,52.80
2018-02-24T01:10:58.344Z,52.80
2018-02-24T01:13:26.619Z,52.80
2018-02-24T01:15:54.919Z,52.80
2018-02-24T01:18:23.199Z,52.80
2018-02-24T01:20:51.450Z,52.70
2018-02-24T01:23:19.792Z,53.40
2018-02-24T01:25:48.819Z,52.80
2018-02-24T01:28:17.104Z,52.70
2018-02-24T01:30:45.389Z,52.80
2018-02-24T01:33:13.674Z,53.00
2018-02-24T01:35:41.933Z,53.10
2018-02-24T01:38:10.204Z,53.40
2018-02-24T01:40:38.487Z,53.40
2018-02-24T01:43:06.759Z,53.50
2018-02-24T01:45:35.099Z,53.60
2018-02-24T01:48:03.387Z,53.70
2018-02-24T01:50:40.471Z,53.70
2018-02-24T01:53:08.743Z,53.80
2018-02-24T01:55:37.031Z,53.80
2018-02-24T01:58:05.287Z,53.90
2018-02-24T02:00:33.674Z,53.80
2018-02-24T02:03:01.949Z,53.90
2018-02-24T02:05:30.218Z,53.90
2018-02-24T02:07:58.479Z,54.00
2018-02-24T02:10:26.764Z,54.10
2018-02-24T02:12:55.031Z,54.20
2018-02-24T02:15:23.313Z,54.30
2018-02-24T02:17:51.582Z,54.20
2018-02-24T02:20:19.859Z,54.20
2018-02-24T02:22:48.255Z,54.20
2018-02-24T02:25:16.592Z,54.10
2018-02-24T02:27:45.615Z,53.90
2018-02-24T02:30:13.928Z,53.80
2018-02-24T02:32:42.174Z,53.80
2018-02-24T02:35:10.455Z,53.70
2018-02-24T02:37:38.722Z,53.70
2018-02-24T02:40:07.141Z,53.60
2018-02-24T02:42:35.408Z,53.60
2018-02-24T02:45:03.688Z,53.60
2018-02-24T02:47:31.964Z,53.70
2018-02-24T02:50:00.245Z,53.70
2018-02-24T02:52:28.520Z,53.70
2018-02-24T02:54:57.548Z,53.60
2018-02-24T02:57:25.835Z,53.50
2018-02-24T02:59:54.158Z,53.50
2018-02-24T03:02:22.448Z,53.50
2018-02-24T03:04:51.473Z,53.40
2018-02-24T03:07:19.801Z,53.40
2018-02-24T03:09:48.067Z,53.30
2018-02-24T03:12:16.346Z,53.40
2018-02-24T03:14:44.607Z,53.40
2018-02-24T03:17:13.749Z,53.50
2018-02-24T03:19:41.987Z,53.40
2018-02-24T03:22:10.246Z,53.50
2018-02-24T03:24:38.573Z,53.40
2018-02-24T03:27:07.026Z,53.50
2018-02-24T03:29:35.304Z,53.50
2018-02-24T03:32:03.574Z,53.40
2018-02-24T03:34:31.865Z,53.50
2018-02-24T03:37:00.100Z,53.40
2018-02-24T03:39:28.416Z,53.40
2018-02-24T03:41:57.475Z,53.30
2018-02-24T03:44:25.762Z,53.20
2018-02-24T03:46:54.112Z,53.10
2018-02-24T03:49:22.378Z,53.20
2018-02-24T03:51:50.650Z,53.10
2018-02-24T03:54:18.914Z,53.10
2018-02-24T03:56:47.185Z,53.30
2018-02-24T03:59:15.473Z,53.30
2018-02-24T04:01:43.804Z,53.40
2018-02-24T04:04:12.641Z,53.30
2018-02-24T04:06:40.923Z,53.40
2018-02-24T04:09:09.221Z,53.40
2018-02-24T04:11:37.512Z,53.40
2018-02-24T04:14:06.563Z,53.20
2018-02-24T04:16:34.849Z,53.60
2018-02-24T04:19:03.095Z,53.60
2018-02-24T04:21:31.363Z,53.70
2018-02-24T04:23:59.644Z,53.60
2018-02-24T04:26:27.927Z,53.70
2018-02-24T04:28:56.391Z,53.70
2018-02-24T04:31:24.655Z,53.80
2018-02-24T04:33:53.769Z,53.90
2018-02-24T04:36:22.058Z,53.90
2018-02-24T04:38:50.316Z,54.00
2018-02-24T04:41:18.612Z,54.10
2018-02-24T04:43:46.890Z,54.20
2018-02-24T04:46:15.159Z,54.10
2018-02-24T04:48:43.482Z,54.20
2018-02-24T04:51:12.387Z,54.20
2018-02-24T04:53:40.661Z,54.30
2018-02-24T04:56:09.695Z,54.30
2018-02-24T04:58:37.985Z,54.30
2018-02-24T05:01:06.255Z,54.10
2018-02-24T05:03:34.622Z,54.10
2018-02-24T05:06:02.879Z,54.20
2018-02-24T05:08:31.163Z,54.20
2018-02-24T05:10:59.522Z,54.10
2018-02-24T05:13:27.855Z,53.90
2018-02-24T05:15:56.178Z,53.90
2018-02-24T05:18:24.445Z,53.90
2018-02-24T05:20:52.695Z,53.80
2018-02-24T05:23:20.972Z,53.70
2018-02-24T05:25:50.071Z,53.60
2018-02-24T05:28:19.109Z,53.50
2018-02-24T05:30:47.382Z,53.40
2018-02-24T05:33:15.762Z,53.30
2018-02-24T05:35:44.663Z,53.10
2018-02-24T05:38:12.946Z,53.10
2018-02-24T05:40:41.290Z,53.10
2018-02-24T05:43:09.567Z,52.90
2018-02-24T05:45:38.030Z,52.90
2018-02-24T05:48:06.319Z,52.70
2018-02-24T05:50:34.595Z,52.60
2018-02-24T05:53:02.866Z,52.50
2018-02-24T05:55:31.299Z,52.50
2018-02-24T05:57:59.572Z,52.40
2018-02-24T06:00:29.347Z,52.10
2018-02-24T06:02:57.617Z,52.10
2018-02-24T06:05:25.896Z,52.20
2018-02-24T06:07:54.140Z,52.00
2018-02-24T06:10:22.437Z,52.00
2018-02-24T06:12:50.689Z,51.90
2018-02-24T06:15:18.956Z,52.00
2018-02-24T06:17:47.272Z,51.90
2018-02-24T06:20:15.506Z,51.90
2018-02-24T06:22:43.914Z,51.90
2018-02-24T06:25:12.197Z,51.70
2018-02-24T06:27:40.487Z,51.70
2018-02-24T06:30:08.806Z,51.80
2018-02-24T06:32:37.929Z,51.60
2018-02-24T06:35:06.194Z,51.60
2018-02-24T06:37:34.496Z,51.50
2018-02-24T06:40:02.791Z,51.50
2018-02-24T06:42:31.326Z,51.50
2018-02-24T06:44:59.633Z,51.30
2018-02-24T06:47:27.994Z,52.00
2018-02-24T06:49:56.327Z,51.30
2018-02-24T06:52:24.711Z,51.30
2018-02-24T06:54:53.778Z,51.30
2018-02-24T06:57:22.052Z,51.20
2018-02-24T06:59:50.316Z,51.20
2018-02-24T07:02:18.596Z,51.20
2018-02-24T07:04:46.997Z,51.00
2018-02-24T07:07:15.377Z,50.80
2018-02-24T07:09:43.627Z,50.50
2018-02-24T07:12:11.923Z,50.40
2018-02-24T07:14:40.971Z,50.70
2018-02-24T07:17:09.292Z,50.10
2018-02-24T07:19:37.572Z,50.10
2018-02-24T07:22:06.599Z,50.10
2018-02-24T07:24:34.925Z,50.00
2018-02-24T07:27:03.199Z,50.00
2018-02-24T07:29:31.488Z,50.00
2018-02-24T07:32:00.538Z,49.80
2018-02-24T07:34:29.579Z,49.70
2018-02-24T07:36:58.607Z,49.30
2018-02-24T07:39:26.926Z,49.20
2018-02-24T07:41:55.213Z,49.30
2018-02-24T07:44:24.259Z,49.10
2018-02-24T07:46:52.614Z,49.10
2018-02-24T07:49:20.840Z,49.00
2018-02-24T07:51:49.140Z,48.80
2018-02-24T07:54:17.383Z,48.40
2018-02-24T07:56:45.672Z,48.40
2018-02-24T07:59:13.924Z,48.20
2018-02-24T08:01:42.439Z,48.00
2018-02-24T08:04:10.689Z,47.70
2018-02-24T08:06:38.955Z,47.60
2018-02-24T08:09:07.262Z,47.50
2018-02-24T08:11:36.418Z,47.50
2018-02-24T08:14:04.736Z,47.10
2018-02-24T08:16:33.838Z,47.00
2018-02-24T08:19:02.859Z,47.00
2018-02-24T08:21:31.174Z,46.90
2018-02-24T08:23:59.514Z,46.90
2018-02-24T08:26:27.781Z,46.40
2018-02-24T08:28:56.064Z,45.90
2018-02-24T08:31:24.338Z,46.60
2018-02-24T08:33:52.636Z,45.60
2018-02-24T08:36:21.102Z,45.20
2018-02-24T08:38:49.439Z,45.20
2018-02-24T08:41:19.295Z,44.30
2018-02-24T08:43:47.560Z,44.20
2018-02-24T08:46:15.829Z,43.90
2018-02-24T08:48:45.063Z,44.00
2018-02-24T08:51:13.370Z,43.90
2018-02-24T08:53:42.427Z,43.30
2018-02-24T08:56:10.884Z,43.30
2018-02-24T08:58:39.144Z,43.50
2018-02-24T09:01:07.433Z,43.00
2018-02-24T09:03:35.774Z,42.80
2018-02-24T09:06:04.823Z,41.70
2018-02-24T09:08:33.897Z,41.70
2018-02-24T09:11:02.142Z,41.50
2018-02-24T09:13:31.264Z,41.50
2018-02-24T09:15:59.543Z,41.40
2018-02-24T09:18:27.831Z,40.50
2018-02-24T09:20:56.143Z,40.40
2018-02-24T09:23:24.377Z,40.20
2018-02-24T09:25:52.887Z,39.70
2018-02-24T09:28:21.228Z,40.00
2018-02-24T09:30:50.528Z,40.00
2018-02-24T09:33:18.719Z,39.70
2018-02-24T09:35:46.996Z,40.10
2018-02-24T09:38:15.260Z,39.60
2018-02-24T09:40:43.587Z,39.10
2018-02-24T09:43:11.887Z,39.00
2018-02-24T09:45:40.358Z,39.00
2018-02-24T09:48:09.367Z,39.00
2018-02-24T09:50:37.636Z,38.90
2018-02-24T09:53:05.901Z,38.90
2018-02-24T09:55:34.195Z,38.80
2018-02-24T09:58:02.487Z,38.70
2018-02-24T10:00:31.017Z,38.60
2018-02-24T10:03:00.219Z,37.60
2018-02-24T10:05:29.436Z,37.80
2018-02-24T10:07:57.695Z,37.70
2018-02-24T10:10:25.990Z,37.40
2018-02-24T10:12:54.983Z,37.00
2018-02-24T10:15:23.263Z,37.00
2018-02-24T10:17:51.687Z,37.40
2018-02-24T10:20:20.743Z,36.70
2018-02-24T10:22:48.997Z,37.10
2018-02-24T10:25:17.252Z,36.40
2018-02-24T10:27:45.615Z,36.30
2018-02-24T10:30:14.679Z,36.10
2018-02-24T10:32:42.933Z,36.10
2018-02-24T10:35:11.215Z,36.10
2018-02-24T10:37:39.566Z,36.00
2018-02-24T10:40:07.852Z,36.00
2018-02-24T10:42:36.134Z,35.90
2018-02-24T10:45:04.587Z,35.00
2018-02-24T10:47:32.837Z,35.70
2018-02-24T10:50:01.889Z,35.10
2018-02-24T10:52:30.136Z,35.00
2018-02-24T10:54:58.475Z,34.90
2018-02-24T10:57:26.873Z,35.10
2018-02-24T10:59:55.075Z,34.80
2018-02-24T11:02:23.340Z,34.80
2018-02-24T11:04:51.599Z,34.80
2018-02-24T11:07:19.871Z,35.90
2018-02-24T11:09:48.901Z,34.70
2018-02-24T11:12:18.010Z,34.70
2018-02-24T11:14:46.480Z,35.50
2018-02-24T11:17:15.022Z,35.20
2018-02-24T11:19:44.071Z,36.20
2018-02-24T11:22:12.415Z,36.10
2018-02-24T11:24:40.682Z,36.20
2018-02-24T11:27:09.016Z,36.50
2018-02-24T11:29:38.109Z,36.70
2018-02-24T11:32:06.626Z,36.60
2018-02-24T11:34:35.625Z,37.90
2018-02-24T11:37:04.158Z,37.80
2018-02-24T11:39:32.399Z,37.30
2018-02-24T11:42:00.767Z,37.90
2018-02-24T11:44:29.195Z,38.20
2018-02-24T11:46:58.962Z,38.70
2018-02-24T11:49:27.210Z,38.70
2018-02-24T11:51:55.504Z,39.10
2018-02-24T11:54:23.763Z,39.00
2018-02-24T11:56:52.153Z,39.60
2018-02-24T11:59:20.610Z,39.80
2018-02-24T12:01:49.676Z,40.20
2018-02-24T12:04:17.922Z,40.20
2018-02-24T12:06:46.186Z,39.80
2018-02-24T12:09:14.459Z,40.40
2018-02-24T12:11:42.720Z,39.70
2018-02-24T12:14:11.054Z,39.90
2018-02-24T12:16:40.249Z,40.00
2018-02-24T12:19:08.503Z,39.90
2018-02-24T12:21:37.012Z,39.90
2018-02-24T12:24:06.092Z,40.70
2018-02-24T12:26:34.354Z,40.70
2018-02-24T12:29:04.219Z,40.60
2018-02-24T12:31:33.252Z,41.30
2018-02-24T12:34:01.532Z,41.20
2018-02-24T12:36:30.116Z,41.50
2018-02-24T12:38:58.438Z,41.70
2018-02-24T12:41:27.438Z,41.30
2018-02-24T12:43:55.733Z,41.20
2018-02-24T12:46:23.979Z,41.70
2018-02-24T12:48:52.988Z,42.60
2018-02-24T12:51:21.280Z,42.60
2018-02-24T12:53:49.513Z,42.90
2018-02-24T12:56:18.744Z,42.70
2018-02-24T12:58:47.679Z,42.00
2018-02-24T13:01:15.934Z,42.20
2018-02-24T13:03:44.182Z,42.40
2018-02-24T13:06:12.530Z,42.60
2018-02-24T13:08:41.563Z,43.10
2018-02-24T13:11:09.863Z,43.00
2018-02-24T13:13:39.039Z,43.10
2018-02-24T13:16:07.341Z,43.60
2018-02-24T13:18:35.587Z,43.90
2018-02-24T13:21:03.885Z,44.20
2018-02-24T13:23:32.137Z,43.80
2018-02-24T13:26:00.390Z,43.90
2018-02-24T13:28:28.656Z,45.00
2018-02-24T13:30:56.972Z,44.40
2018-02-24T13:33:25.325Z,44.10
2018-02-24T13:35:53.579Z,44.10
2018-02-24T13:38:21.900Z,44.10
2018-02-24T13:40:50.194Z,44.10
2018-02-24T13:43:18.409Z,44.70
2018-02-24T13:45:46.747Z,45.40
2018-02-24T13:48:15.873Z,45.10
2018-02-24T13:50:44.191Z,45.10
2018-02-24T13:53:12.464Z,45.40
2018-02-24T13:55:40.755Z,45.50
2018-02-24T13:58:09.072Z,45.90
2018-02-24T14:00:37.347Z,46.20
2018-02-24T14:03:05.697Z,46.40
2018-02-24T14:05:33.873Z,47.00
2018-02-24T14:08:02.171Z,47.40
2018-02-24T14:10:30.423Z,47.00
2018-02-24T14:12:58.796Z,47.60
2018-02-24T14:15:26.991Z,48.40
2018-02-24T14:17:55.263Z,47.90
2018-02-24T14:20:24.267Z,48.40
2018-02-24T14:22:52.549Z,48.20
2018-02-24T14:25:20.828Z,47.80
2018-02-24T14:27:49.063Z,48.00
2018-02-24T14:30:18.104Z,47.50
2018-02-24T14:32:46.361Z,47.40
2018-02-24T14:35:14.620Z,47.30
2018-02-24T14:37:43.645Z,47.00
2018-02-24T14:40:11.941Z,47.00
2018-02-24T14:42:40.255Z,47.00
2018-02-24T14:45:08.760Z,47.00
2018-02-24T14:47:37.023Z,46.90
2018-02-24T14:50:05.484Z,46.80
2018-02-24T14:52:33.755Z,46.70
2018-02-24T14:55:02.013Z,47.30
2018-02-24T14:57:30.710Z,46.90
2018-02-24T14:59:59.049Z,47.10
2018-02-24T15:02:29.337Z,47.50
2018-02-24T15:04:57.695Z,47.90
2018-02-24T15:07:25.918Z,48.20
2018-02-24T15:09:54.168Z,47.80
2018-02-24T15:12:22.428Z,48.20
2018-02-24T15:14:51.501Z,47.80
2018-02-24T15:17:19.795Z,47.60
2018-02-24T15:19:48.807Z,47.40
2018-02-24T15:22:17.128Z,47.30
2018-02-24T15:24:45.370Z,47.70
2018-02-24T15:27:13.648Z,47.60
2018-02-24T15:29:41.873Z,47.40
2018-02-24T15:32:10.252Z,47.40
2018-02-24T15:34:38.510Z,47.40
2018-02-24T15:37:06.803Z,47.50
2018-02-24T15:39:35.171Z,47.60
2018-02-24T15:42:03.472Z,47.40
2018-02-24T15:44:32.505Z,48.80
2018-02-24T15:47:00.766Z,48.10
2018-02-24T15:49:29.035Z,48.10
2018-02-24T15:51:57.338Z,48.30
2018-02-24T15:54:25.651Z,48.70
2018-02-24T15:56:54.683Z,49.40
2018-02-24T15:59:22.943Z,49.40
2018-02-24T16:01:51.967Z,49.70
2018-02-24T16:04:20.429Z,49.50
2018-02-24T16:06:48.683Z,49.80
2018-02-24T16:09:17.003Z,50.10
2018-02-24T16:11:45.327Z,50.10
2018-02-24T16:14:13.650Z,50.40
2018-02-24T16:16:41.977Z,50.40
2018-02-24T16:19:11.060Z,50.70
2018-02-24T16:21:40.087Z,50.90
2018-02-24T16:24:08.361Z,50.80
2018-02-24T16:26:36.717Z,50.90
2018-02-24T16:29:05.748Z,51.30
2018-02-24T16:31:34.077Z,51.10
2018-02-24T16:34:03.167Z,51.30
2018-02-24T16:36:32.203Z,51.30
2018-02-24T16:39:00.489Z,51.20
2018-02-24T16:41:28.801Z,51.20
2018-02-24T16:43:57.081Z,51.60
2018-02-24T16:46:25.313Z,51.80
2018-02-24T16:48:53.570Z,51.60
2018-02-24T16:51:21.831Z,51.60
2018-02-24T16:53:50.101Z,52.00
2018-02-24T16:56:18.340Z,52.10
2018-02-24T16:58:46.625Z,52.00
2018-02-24T17:01:14.902Z,51.80
2018-02-24T17:03:43.226Z,51.70
2018-02-24T17:06:11.502Z,51.60
2018-02-24T17:08:39.750Z,51.20
2018-02-24T17:11:08.000Z,51.00
2018-02-24T17:13:36.731Z,50.90
2018-02-24T17:16:04.992Z,51.10
2018-02-24T17:18:33.297Z,50.90
2018-02-24T17:21:01.550Z,50.70
2018-02-24T17:23:29.821Z,50.50
2018-02-24T17:25:58.057Z,50.30
2018-02-24T17:28:26.324Z,50.40
2018-02-24T17:30:54.580Z,50.10
2018-02-24T17:33:22.864Z,50.10
2018-02-24T17:35:51.254Z,49.90
2018-02-24T17:38:19.511Z,49.80
2018-02-24T17:40:47.767Z,49.70
2018-02-24T17:43:16.138Z,49.50
2018-02-24T17:45:44.415Z,49.60
2018-02-24T17:48:12.691Z,49.80
2018-02-24T17:50:40.951Z,49.90
2018-02-24T17:53:09.245Z,49.80
2018-02-24T17:55:37.531Z,49.70
2018-02-24T17:58:05.790Z,49.80
2018-02-24T18:00:34.110Z,49.70
2018-02-24T18:03:02.447Z,49.70
2018-02-24T18:05:30.721Z,49.60
2018-02-24T18:07:59.044Z,49.70
2018-02-24T18:10:28.256Z,49.50
2018-02-24T18:12:56.581Z,49.50
2018-02-24T18:15:24.787Z,49.10
2018-02-24T18:17:53.226Z,49.00
2018-02-24T18:20:21.580Z,48.80
2018-02-24T18:22:49.853Z,48.70
2018-02-24T18:25:18.127Z,48.50
2018-02-24T18:27:46.347Z,48.70
2018-02-24T18:30:14.609Z,48.60
2018-02-24T18:32:42.908Z,48.40
2018-02-24T18:35:11.164Z,48.30
2018-02-24T18:37:39.430Z,48.20
2018-02-24T18:40:07.710Z,48.10
2018-02-24T18:42:35.959Z,48.20
2018-02-24T18:45:04.207Z,47.90
2018-02-24T18:47:33.228Z,47.40
2018-02-24T18:50:01.460Z,47.20
2018-02-24T18:52:29.748Z,47.10
2018-02-24T18:54:58.763Z,46.90
2018-02-24T18:57:27.094Z,46.90
2018-02-24T18:59:55.357Z,46.60
2018-02-24T19:02:23.672Z,46.80
2018-02-24T19:04:52.804Z,45.60
2018-02-24T19:07:21.074Z,45.50
2018-02-24T19:09:49.351Z,45.00
2018-02-24T19:12:17.639Z,45.00
2018-02-24T19:14:45.979Z,45.00
2018-02-24T19:17:14.321Z,45.00
2018-02-24T19:19:42.743Z,44.70
2018-02-24T19:22:10.958Z,44.70
2018-02-24T19:24:39.211Z,44.50
2018-02-24T19:27:07.519Z,44.40
2018-02-24T19:29:35.979Z,44.50
2018-02-24T19:32:04.724Z,44.60
2018-02-24T19:34:33.021Z,44.70
2018-02-24T19:37:01.460Z,44.90
2018-02-24T19:39:29.696Z,44.90
2018-02-24T19:41:58.049Z,44.80
2018-02-24T19:44:26.322Z,45.00
2018-02-24T19:46:54.605Z,45.10
2018-02-24T19:49:22.863Z,45.00
2018-02-24T19:51:51.168Z,45.20
2018-02-24T19:54:19.581Z,45.30
2018-02-24T19:56:48.633Z,45.60
2018-02-24T19:59:16.876Z,45.50
2018-02-24T20:01:45.224Z,45.60
2018-02-24T20:04:13.519Z,45.50
2018-02-24T20:06:42.598Z,45.90
2018-02-24T20:09:10.899Z,45.90
2018-02-24T20:11:39.208Z,46.10
2018-02-24T20:14:07.511Z,46.00
2018-02-24T20:16:36.628Z,46.20
2018-02-24T20:19:05.034Z,46.20
2018-02-24T20:21:33.274Z,46.20
2018-02-24T20:24:02.292Z,46.30
2018-02-24T20:26:30.613Z,46.30
2018-02-24T20:28:58.975Z,46.60
2018-02-24T20:31:27.478Z,46.60
2018-02-24T20:33:55.820Z,46.60
2018-02-24T20:36:24.071Z,46.80
2018-02-24T20:38:52.340Z,46.70
2018-02-24T20:41:20.608Z,46.90
2018-02-24T20:43:48.908Z,46.90
2018-02-24T20:46:17.181Z,47.00
2018-02-24T20:48:45.469Z,47.20
2018-02-24T20:51:13.774Z,47.40
2018-02-24T20:53:42.064Z,47.30
2018-02-24T20:56:10.326Z,47.50
2018-02-24T20:58:38.590Z,47.70
2018-02-24T21:01:07.123Z,47.60
2018-02-24T21:03:35.573Z,47.90
2018-02-24T21:06:03.843Z,47.90
2018-02-24T21:08:32.368Z,48.10
2018-02-24T21:11:00.811Z,48.20
2018-02-24T21:13:29.301Z,48.40
2018-02-24T21:15:58.527Z,48.60
2018-02-24T21:18:27.006Z,48.50
2018-02-24T21:20:55.491Z,48.50
2018-02-24T21:23:23.769Z,48.50
2018-02-24T21:25:52.075Z,48.60
2018-02-24T21:28:20.441Z,48.70
2018-02-24T21:30:48.819Z,48.50
2018-02-24T21:33:17.062Z,48.70
2018-02-24T21:35:45.451Z,48.60
2018-02-24T21:38:13.771Z,48.70
2018-02-24T21:40:42.048Z,48.80
2018-02-24T21:43:10.328Z,48.80
2018-02-24T21:45:38.592Z,48.50
2018-02-24T21:48:07.827Z,48.40
2018-02-24T21:50:36.142Z,48.40
2018-02-24T21:53:05.284Z,48.80
2018-02-24T21:55:34.499Z,48.60
2018-02-24T21:58:02.876Z,48.90
2018-02-24T22:00:31.145Z,48.60
2018-02-24T22:02:59.435Z,48.40
2018-02-24T22:05:27.702Z,48.40
2018-02-24T22:07:55.983Z,48.20
2018-02-24T22:10:24.250Z,48.20
2018-02-24T22:12:52.530Z,48.30
2018-02-24T22:15:20.797Z,48.50
2018-02-24T22:17:49.345Z,48.40
2018-02-24T22:20:18.411Z,48.50
2018-02-24T22:22:46.655Z,48.40
2018-02-24T22:25:14.907Z,48.50
2018-02-24T22:27:43.179Z,48.50
2018-02-24T22:30:11.467Z,48.50
2018-02-24T22:32:39.865Z,48.60
2018-02-24T22:35:09.691Z,48.70
2018-02-24T22:37:38.016Z,48.60
2018-02-24T22:40:07.035Z,48.70
2018-02-24T22:42:35.432Z,48.60
2018-02-24T22:45:03.775Z,48.60
2018-02-24T22:47:32.034Z,48.60
2018-02-24T22:50:01.070Z,48.50
2018-02-24T22:52:29.319Z,48.40
2018-02-24T22:54:57.766Z,48.90
2018-02-24T22:57:26.008Z,48.40
2018-02-24T22:59:54.340Z,48.20
2018-02-24T23:02:22.639Z,48.40
2018-02-24T23:04:50.879Z,48.60
2018-02-24T23:07:19.908Z,48.60
2018-02-24T23:09:48.181Z,48.60
2018-02-24T23:12:16.505Z,48.80
2018-02-24T23:14:44.759Z,48.70
2018-02-24T23:17:13.044Z,48.50
2018-02-24T23:19:41.295Z,48.60
2018-02-24T23:22:09.601Z,48.50
2018-02-24T23:24:38.046Z,48.40
2018-02-24T23:27:06.472Z,48.30
2018-02-24T23:29:35.493Z,48.60
2018-02-24T23:32:04.596Z,48.50
2018-02-24T23:34:33.237Z,48.40
2018-02-24T23:37:01.502Z,48.50
2018-02-24T23:39:29.786Z,48.50
2018-02-24T23:41:58.083Z,48.60
2018-02-24T23:44:26.390Z,48.80
2018-02-24T23:46:54.674Z,48.70
2018-02-24T23:49:22.963Z,48.80
2018-02-24T23:51:51.303Z,48.90
2018-02-24T23:54:19.708Z,48.90
2018-02-24T23:56:48.179Z,48.90
2018-02-24T23:59:16.441Z,49.10
